createdAt,value
2018-12-16T00:00:58.280Z,92.79
2018-12-16T00:01:58.267Z,93.11
2018-12-16T00:02:58.259Z,92.79
2018-12-16T00:03:58.249Z,92.58
2018-12-16T00:04:58.236Z,92.90
2018-12-16T00:05:58.226Z,92.79
2018-12-16T00:06:58.214Z,93.01
2018-12-16T00:07:58.208Z,93.21
2018-12-16T00:08:58.198Z,92.69
2018-12-16T00:09:58.189Z,92.79
2018-12-16T00:10:58.173Z,93.11
2018-12-16T00:11:58.162Z,92.90
2018-12-16T00:12:58.155Z,92.90
2018-12-16T00:13:58.145Z,92.90
2018-12-16T00:14:58.131Z,92.79
2018-12-16T00:15:58.122Z,92.90
2018-12-16T00:16:58.112Z,92.69
2018-12-16T00:17:58.101Z,92.90
2018-12-16T00:18:58.092Z,93.11
2018-12-16T00:19:58.079Z,92.90
2018-12-16T00:20:58.069Z,92.48
2018-12-16T00:21:58.059Z,92.38
2018-12-16T00:22:58.050Z,92.38
2018-12-16T00:23:58.037Z,92.48
2018-12-16T00:24:58.027Z,92.06
2018-12-16T00:25:58.017Z,92.69
2018-12-16T00:26:58.009Z,92.27
2018-12-16T00:27:57.996Z,91.96
2018-12-16T00:28:57.983Z,92.38
2018-12-16T00:29:57.975Z,92.06
2018-12-16T00:30:57.963Z,91.96
2018-12-16T00:31:57.954Z,91.43
2018-12-16T00:32:57.943Z,91.64
2018-12-16T00:33:57.933Z,91.64
2018-12-16T00:34:57.924Z,91.85
2018-12-16T00:35:57.918Z,91.85
2018-12-16T00:36:57.900Z,91.22
2018-12-16T00:37:57.889Z,91.85
2018-12-16T00:38:57.880Z,91.64
2018-12-16T00:39:57.870Z,91.85
2018-12-16T00:40:57.858Z,91.64
2018-12-16T00:41:57.849Z,91.64
2018-12-16T00:42:57.836Z,92.38
2018-12-16T00:43:57.825Z,91.96
2018-12-16T00:44:57.816Z,91.64
2018-12-16T00:45:57.806Z,91.43
2018-12-16T00:46:57.797Z,90.91
2018-12-16T00:47:57.785Z,90.39
2018-12-16T00:48:57.775Z,91.33
2018-12-16T00:49:57.763Z,91.02
2018-12-16T00:50:57.759Z,91.22
2018-12-16T00:51:57.746Z,90.91
2018-12-16T00:52:57.734Z,91.12
2018-12-16T00:53:57.723Z,91.12
2018-12-16T00:54:57.715Z,90.91
2018-12-16T00:55:57.701Z,91.22
2018-12-16T00:56:57.690Z,90.70
2018-12-16T00:57:57.681Z,90.49
2018-12-16T00:58:57.671Z,90.74
2018-12-16T00:59:57.661Z,91.12
2018-12-16T01:00:57.649Z,90.70
2018-12-16T01:01:57.641Z,90.64
2018-12-16T01:02:57.630Z,90.74
2018-12-16T01:03:57.617Z,90.64
2018-12-16T01:04:57.606Z,90.43
2018-12-16T01:05:57.594Z,90.01
2018-12-16T01:06:57.586Z,90.64
2018-12-16T01:07:57.579Z,90.11
2018-12-16T01:08:57.568Z,89.90
2018-12-16T01:09:57.553Z,89.80
2018-12-16T01:10:57.543Z,89.65
2018-12-16T01:11:57.532Z,89.97
2018-12-16T01:12:57.525Z,90.11
2018-12-16T01:13:57.512Z,89.90
2018-12-16T01:14:57.501Z,89.90
2018-12-16T01:15:57.492Z,89.48
2018-12-16T01:16:57.480Z,89.59
2018-12-16T01:17:57.471Z,89.70
2018-12-16T01:18:57.459Z,89.07
2018-12-16T01:19:57.447Z,88.75
2018-12-16T01:20:57.438Z,88.96
2018-12-16T01:21:57.426Z,88.96
2018-12-16T01:22:57.417Z,89.48
2018-12-16T01:23:57.408Z,89.59
2018-12-16T01:24:57.395Z,88.75
2018-12-16T01:25:57.385Z,88.23
2018-12-16T01:26:57.375Z,87.71
2018-12-16T01:27:57.364Z,87.60
2018-12-16T01:28:57.353Z,86.55
2018-12-16T01:29:57.345Z,87.15
2018-12-16T01:30:57.332Z,87.08
2018-12-16T01:31:57.322Z,87.18
2018-12-16T01:32:57.322Z,87.29
2018-12-16T01:33:57.303Z,86.98
2018-12-16T01:34:57.291Z,86.55
2018-12-16T01:35:57.279Z,86.87
2018-12-16T01:36:57.270Z,86.98
2018-12-16T01:37:57.261Z,87.08
2018-12-16T01:38:57.252Z,86.87
2018-12-16T01:39:57.238Z,85.93
2018-12-16T01:40:57.233Z,86.04
2018-12-16T01:41:57.219Z,86.55
2018-12-16T01:42:57.207Z,86.04
2018-12-16T01:43:57.197Z,85.61
2018-12-16T01:44:57.186Z,85.30
2018-12-16T01:45:57.174Z,85.93
2018-12-16T01:46:57.166Z,85.51
2018-12-16T01:47:57.154Z,85.51
2018-12-16T01:48:57.143Z,85.30
2018-12-16T01:49:57.132Z,85.19
2018-12-16T01:50:57.124Z,84.88
2018-12-16T01:51:57.114Z,85.19
2018-12-16T01:52:57.100Z,85.51
2018-12-16T01:53:57.091Z,85.19
2018-12-16T01:54:57.087Z,85.19
2018-12-16T01:55:57.075Z,84.88
2018-12-16T01:56:57.059Z,84.36
2018-12-16T01:57:57.050Z,84.36
2018-12-16T01:58:57.037Z,84.88
2018-12-16T01:59:57.027Z,84.25
2018-12-16T02:00:57.020Z,84.36
2018-12-16T02:01:57.007Z,84.25
2018-12-16T02:02:56.996Z,84.15
2018-12-16T02:03:56.985Z,84.15
2018-12-16T02:04:56.973Z,84.25
2018-12-16T02:05:56.966Z,83.94
2018-12-16T02:06:56.954Z,83.94
2018-12-16T02:07:56.943Z,83.52
2018-12-16T02:08:56.936Z,83.00
2018-12-16T02:09:56.924Z,82.68
2018-12-16T02:10:56.913Z,83.21
2018-12-16T02:11:56.903Z,83.00
2018-12-16T02:12:56.892Z,82.89
2018-12-16T02:13:56.881Z,82.40
2018-12-16T02:14:56.870Z,81.85
2018-12-16T02:15:56.862Z,81.43
2018-12-16T02:16:56.849Z,82.16
2018-12-16T02:17:56.840Z,81.22
2018-12-16T02:18:56.827Z,80.90
2018-12-16T02:19:56.823Z,81.63
2018-12-16T02:20:56.806Z,81.85
2018-12-16T02:21:56.796Z,81.53
2018-12-16T02:22:57.230Z,80.59
2018-12-16T02:23:56.777Z,80.59
2018-12-16T02:24:56.766Z,80.59
2018-12-16T02:25:56.755Z,80.59
2018-12-16T02:26:56.747Z,81.26
2018-12-16T02:27:56.733Z,80.63
2018-12-16T02:28:56.723Z,80.94
2018-12-16T02:29:56.714Z,80.63
2018-12-16T02:30:56.702Z,80.69
2018-12-16T02:31:56.692Z,80.27
2018-12-16T02:32:56.685Z,79.58
2018-12-16T02:33:56.670Z,80.27
2018-12-16T02:34:56.661Z,80.42
2018-12-16T02:35:56.652Z,79.13
2018-12-16T02:36:56.644Z,79.68
2018-12-16T02:37:56.629Z,80.17
2018-12-16T02:38:56.619Z,80.31
2018-12-16T02:39:56.608Z,79.79
2018-12-16T02:40:56.601Z,78.60
2018-12-16T02:41:56.586Z,78.01
2018-12-16T02:42:56.575Z,77.97
2018-12-16T02:43:56.565Z,78.08
2018-12-16T02:44:56.556Z,78.18
2018-12-16T02:45:56.545Z,77.14
2018-12-16T02:46:56.536Z,74.84
2018-12-16T02:47:56.526Z,75.67
2018-12-16T02:48:56.514Z,75.46
2018-12-16T02:49:56.504Z,75.04
2018-12-16T02:50:56.495Z,75.15
2018-12-16T02:51:56.482Z,75.04
2018-12-16T02:52:56.473Z,74.52
2018-12-16T02:53:56.465Z,74.94
2018-12-16T02:54:56.453Z,74.94
2018-12-16T02:55:56.443Z,75.04
2018-12-16T02:56:56.429Z,74.84
2018-12-16T02:57:56.427Z,75.25
2018-12-16T02:58:56.411Z,75.25
2018-12-16T02:59:56.403Z,74.13
2018-12-16T03:00:56.392Z,73.93
2018-12-16T03:01:56.377Z,73.89
2018-12-16T03:02:56.371Z,74.52
2018-12-16T03:03:56.370Z,74.10
2018-12-16T03:04:56.346Z,74.21
2018-12-16T03:05:56.342Z,74.10
2018-12-16T03:06:56.323Z,74.10
2018-12-16T03:07:56.313Z,74.10
2018-12-16T03:08:56.304Z,74.84
2018-12-16T03:09:56.292Z,74.94
2018-12-16T03:10:56.284Z,74.21
2018-12-16T03:11:56.272Z,74.31
2018-12-16T03:12:56.261Z,74.41
2018-12-16T03:13:56.252Z,73.79
2018-12-16T03:14:56.240Z,74.55
2018-12-16T03:15:56.229Z,74.94
2018-12-16T03:16:56.220Z,74.10
2018-12-16T03:17:56.209Z,73.68
2018-12-16T03:18:56.200Z,74.62
2018-12-16T03:19:56.189Z,74.13
2018-12-16T03:20:56.178Z,74.73
2018-12-16T03:21:56.168Z,75.18
2018-12-16T03:22:56.158Z,75.35
2018-12-16T03:23:56.150Z,75.92
2018-12-16T03:24:56.136Z,76.09
2018-12-16T03:25:56.125Z,76.30
2018-12-16T03:26:56.150Z,75.81
2018-12-16T03:27:56.105Z,76.12
2018-12-16T03:28:56.093Z,77.59
2018-12-16T03:29:56.095Z,78.32
2018-12-16T03:30:56.075Z,77.91
2018-12-16T03:31:56.068Z,78.95
2018-12-16T03:32:56.065Z,78.74
2018-12-16T03:33:56.044Z,79.16
2018-12-16T03:34:56.055Z,79.16
2018-12-16T03:35:56.019Z,79.47
2018-12-16T03:36:56.011Z,79.58
2018-12-16T03:37:56.001Z,80.10
2018-12-16T03:38:55.988Z,80.73
2018-12-16T03:39:55.979Z,80.94
2018-12-16T03:40:55.968Z,81.15
2018-12-16T03:41:55.959Z,81.26
2018-12-16T03:42:55.946Z,81.57
2018-12-16T03:43:55.936Z,81.15
2018-12-16T03:44:55.925Z,81.78
2018-12-16T03:45:55.914Z,82.30
2018-12-16T03:46:55.906Z,82.62
2018-12-16T03:47:55.896Z,82.62
2018-12-16T03:48:55.882Z,82.62
2018-12-16T03:49:55.874Z,82.51
2018-12-16T03:50:55.862Z,82.72
2018-12-16T03:51:55.852Z,82.82
2018-12-16T03:52:55.842Z,82.86
2018-12-16T03:53:55.833Z,83.03
2018-12-16T03:54:55.820Z,83.35
2018-12-16T03:55:55.810Z,83.14
2018-12-16T03:56:55.802Z,83.77
2018-12-16T03:57:55.790Z,83.87
2018-12-16T03:58:55.778Z,83.87
2018-12-16T03:59:55.771Z,83.56
2018-12-16T04:00:55.760Z,83.87
2018-12-16T04:01:55.748Z,83.45
2018-12-16T04:02:55.735Z,83.49
2018-12-16T04:03:55.727Z,84.71
2018-12-16T04:04:55.719Z,84.50
2018-12-16T04:05:55.706Z,84.50
2018-12-16T04:06:55.699Z,84.33
2018-12-16T04:07:55.684Z,83.98
2018-12-16T04:08:55.674Z,84.12
2018-12-16T04:09:55.665Z,84.50
2018-12-16T04:10:55.660Z,84.85
2018-12-16T04:11:55.644Z,84.54
2018-12-16T04:12:55.632Z,84.81
2018-12-16T04:13:55.627Z,84.71
2018-12-16T04:14:55.611Z,85.59
2018-12-16T04:15:55.600Z,85.44
2018-12-16T04:16:55.596Z,85.24
2018-12-16T04:17:55.580Z,85.17
2018-12-16T04:18:55.571Z,85.02
2018-12-16T04:19:55.558Z,85.48
2018-12-16T04:20:55.548Z,85.17
2018-12-16T04:21:55.535Z,84.75
2018-12-16T04:22:55.527Z,85.27
2018-12-16T04:23:55.517Z,85.59
2018-12-16T04:24:55.506Z,85.13
2018-12-16T04:25:55.495Z,85.69
2018-12-16T04:26:55.482Z,85.69
2018-12-16T04:27:55.475Z,85.69
2018-12-16T04:28:55.465Z,85.17
2018-12-16T04:29:55.453Z,85.59
2018-12-16T04:30:55.442Z,85.69
2018-12-16T04:31:55.433Z,85.90
2018-12-16T04:32:55.425Z,85.80
2018-12-16T04:33:55.409Z,85.59
2018-12-16T04:34:55.401Z,86.11
2018-12-16T04:35:55.389Z,85.80
2018-12-16T04:36:55.379Z,86.32
2018-12-16T04:37:55.369Z,86.11
2018-12-16T04:38:55.359Z,86.22
2018-12-16T04:39:55.346Z,86.32
2018-12-16T04:40:55.337Z,86.11
2018-12-16T04:41:55.327Z,86.22
2018-12-16T04:42:55.318Z,87.05
2018-12-16T04:43:55.304Z,87.05
2018-12-16T04:44:55.295Z,87.05
2018-12-16T04:45:55.287Z,86.74
2018-12-16T04:46:55.276Z,86.85
2018-12-16T04:47:55.267Z,86.74
2018-12-16T04:48:55.253Z,87.16
2018-12-16T04:49:55.256Z,86.85
2018-12-16T04:50:55.235Z,86.95
2018-12-16T04:51:55.225Z,86.85
2018-12-16T04:52:55.212Z,87.26
2018-12-16T04:53:55.201Z,86.85
2018-12-16T04:54:55.191Z,87.16
2018-12-16T04:55:55.180Z,86.85
2018-12-16T04:56:55.167Z,86.85
2018-12-16T04:57:55.159Z,86.74
2018-12-16T04:58:55.149Z,86.85
2018-12-16T04:59:55.140Z,86.85
2018-12-16T05:00:55.127Z,86.95
2018-12-16T05:01:55.117Z,87.16
2018-12-16T05:02:55.107Z,86.74
2018-12-16T05:03:55.104Z,87.16
2018-12-16T05:04:55.102Z,86.63
2018-12-16T05:05:55.076Z,87.16
2018-12-16T05:06:55.065Z,87.26
2018-12-16T05:07:55.056Z,87.37
2018-12-16T05:08:55.044Z,86.74
2018-12-16T05:09:55.032Z,86.53
2018-12-16T05:10:55.025Z,87.26
2018-12-16T05:11:55.013Z,87.58
2018-12-16T05:12:55.002Z,87.26
2018-12-16T05:13:54.993Z,87.26
2018-12-16T05:14:54.982Z,86.63
2018-12-16T05:15:54.970Z,86.85
2018-12-16T05:16:54.960Z,86.85
2018-12-16T05:17:54.949Z,87.05
2018-12-16T05:18:54.941Z,86.95
2018-12-16T05:19:54.929Z,86.85
2018-12-16T05:20:54.916Z,86.95
2018-12-16T05:21:54.913Z,86.85
2018-12-16T05:22:54.896Z,87.05
2018-12-16T05:23:54.885Z,86.32
2018-12-16T05:24:54.879Z,86.22
2018-12-16T05:25:54.866Z,86.00
2018-12-16T05:26:54.855Z,86.43
2018-12-16T05:27:54.846Z,85.48
2018-12-16T05:28:54.832Z,85.86
2018-12-16T05:29:54.824Z,85.69
2018-12-16T05:30:54.812Z,85.38
2018-12-16T05:31:54.807Z,85.06
2018-12-16T05:32:54.791Z,85.59
2018-12-16T05:33:54.781Z,85.59
2018-12-16T05:34:54.773Z,85.90
2018-12-16T05:35:54.765Z,85.38
2018-12-16T05:36:54.750Z,85.38
2018-12-16T05:37:54.739Z,85.80
2018-12-16T05:38:54.728Z,84.44
2018-12-16T05:39:54.718Z,84.33
2018-12-16T05:40:54.708Z,83.98
2018-12-16T05:41:54.698Z,83.39
2018-12-16T05:42:54.686Z,84.33
2018-12-16T05:43:54.676Z,84.22
2018-12-16T05:44:54.669Z,84.75
2018-12-16T05:45:54.657Z,83.70
2018-12-16T05:46:54.646Z,83.56
2018-12-16T05:47:54.639Z,83.70
2018-12-16T05:48:54.623Z,83.87
2018-12-16T05:49:54.616Z,84.12
2018-12-16T05:50:54.603Z,84.12
2018-12-16T05:51:54.592Z,83.49
2018-12-16T05:52:54.586Z,83.45
2018-12-16T05:53:54.572Z,83.45
2018-12-16T05:54:54.561Z,83.98
2018-12-16T05:55:54.552Z,84.29
2018-12-16T05:56:54.548Z,84.50
2018-12-16T05:57:54.528Z,83.77
2018-12-16T05:58:54.526Z,84.39
2018-12-16T05:59:54.510Z,84.19
2018-12-16T06:00:54.507Z,84.29
2018-12-16T06:01:54.486Z,84.39
2018-12-16T06:02:54.483Z,84.39
2018-12-16T06:03:54.470Z,84.44
2018-12-16T06:04:54.457Z,83.98
2018-12-16T06:05:54.447Z,84.12
2018-12-16T06:06:54.436Z,84.96
2018-12-16T06:07:54.426Z,84.61
2018-12-16T06:08:54.418Z,84.33
2018-12-16T06:09:54.405Z,84.33
2018-12-16T06:10:54.392Z,84.39
2018-12-16T06:11:54.384Z,84.22
2018-12-16T06:12:54.372Z,84.61
2018-12-16T06:13:54.364Z,84.12
2018-12-16T06:14:54.357Z,84.33
2018-12-16T06:15:54.340Z,83.35
2018-12-16T06:16:54.329Z,83.77
2018-12-16T06:17:54.321Z,83.59
2018-12-16T06:18:54.310Z,83.45
2018-12-16T06:19:54.305Z,83.49
2018-12-16T06:20:54.295Z,83.35
2018-12-16T06:21:54.278Z,83.98
2018-12-16T06:22:54.270Z,83.56
2018-12-16T06:23:55.787Z,83.45
2018-12-16T06:24:54.246Z,83.35
2018-12-16T06:25:54.240Z,84.75
2018-12-16T06:26:54.228Z,84.08
2018-12-16T06:27:54.213Z,84.54
2018-12-16T06:28:54.206Z,83.70
2018-12-16T06:29:54.192Z,84.12
2018-12-16T06:30:54.182Z,83.39
2018-12-16T06:31:55.288Z,84.12
2018-12-16T06:32:54.168Z,84.33
2018-12-16T06:33:54.150Z,83.39
2018-12-16T06:34:54.141Z,84.12
2018-12-16T06:35:54.132Z,84.44
2018-12-16T06:36:54.119Z,84.12
2018-12-16T06:37:54.110Z,84.01
2018-12-16T06:38:54.098Z,83.39
2018-12-16T06:39:54.091Z,83.70
2018-12-16T06:40:54.087Z,83.49
2018-12-16T06:41:55.325Z,83.39
2018-12-16T06:42:54.060Z,83.70
2018-12-16T06:43:54.047Z,83.28
2018-12-16T06:44:54.037Z,83.70
2018-12-16T06:45:54.026Z,83.81
2018-12-16T06:46:54.018Z,83.18
2018-12-16T06:47:54.007Z,83.18
2018-12-16T06:48:53.996Z,83.49
2018-12-16T06:49:53.986Z,83.49
2018-12-16T06:50:53.979Z,83.18
2018-12-16T06:51:53.966Z,82.86
2018-12-16T06:52:53.954Z,82.45
2018-12-16T06:53:53.943Z,82.45
2018-12-16T06:54:53.930Z,83.18
2018-12-16T06:55:53.922Z,82.55
2018-12-16T06:56:53.911Z,82.86
2018-12-16T06:57:53.900Z,82.65
2018-12-16T06:58:53.888Z,82.55
2018-12-16T06:59:53.880Z,82.65
2018-12-16T07:00:53.870Z,83.07
2018-12-16T07:01:53.861Z,83.07
2018-12-16T07:02:53.850Z,82.55
2018-12-16T07:03:53.838Z,81.82
2018-12-16T07:04:53.825Z,82.45
2018-12-16T07:05:53.816Z,82.55
2018-12-16T07:06:53.813Z,82.34
2018-12-16T07:07:53.800Z,82.45
2018-12-16T07:08:53.787Z,82.03
2018-12-16T07:09:53.773Z,81.92
2018-12-16T07:10:53.765Z,81.82
2018-12-16T07:11:53.760Z,82.13
2018-12-16T07:12:53.744Z,81.19
2018-12-16T07:13:53.741Z,81.29
2018-12-16T07:14:53.723Z,81.40
2018-12-16T07:15:53.734Z,80.35
2018-12-16T07:16:53.700Z,81.15
2018-12-16T07:17:53.691Z,80.31
2018-12-16T07:18:53.686Z,81.04
2018-12-16T07:19:53.669Z,80.42
2018-12-16T07:20:53.699Z,79.79
2018-12-16T07:21:53.695Z,80.35
2018-12-16T07:22:53.681Z,80.52
2018-12-16T07:23:53.649Z,80.56
2018-12-16T07:24:53.626Z,80.52
2018-12-16T07:25:53.614Z,80.73
2018-12-16T07:26:53.596Z,80.21
2018-12-16T07:27:53.593Z,80.46
2018-12-16T07:28:53.577Z,80.21
2018-12-16T07:29:53.569Z,80.52
2018-12-16T07:30:53.561Z,81.15
2018-12-16T07:31:53.543Z,80.56
2018-12-16T07:32:53.532Z,81.60
2018-12-16T07:33:53.523Z,81.08
2018-12-16T07:34:53.513Z,80.46
2018-12-16T07:35:53.504Z,80.10
2018-12-16T07:36:53.491Z,80.56
2018-12-16T07:37:53.503Z,79.37
2018-12-16T07:38:53.470Z,79.58
2018-12-16T07:39:53.462Z,79.41
2018-12-16T07:40:53.469Z,78.67
2018-12-16T07:41:53.441Z,78.53
2018-12-16T07:42:53.449Z,79.16
2018-12-16T07:43:53.418Z,78.85
2018-12-16T07:44:53.409Z,78.85
2018-12-16T07:45:53.463Z,79.20
2018-12-16T07:46:53.387Z,79.16
2018-12-16T07:47:53.378Z,78.85
2018-12-16T07:48:53.367Z,78.85
2018-12-16T07:49:53.353Z,78.43
2018-12-16T07:50:53.350Z,78.74
2018-12-16T07:51:53.337Z,78.53
2018-12-16T07:52:53.325Z,78.74
2018-12-16T07:53:53.343Z,78.67
2018-12-16T07:54:53.323Z,78.32
2018-12-16T07:55:53.320Z,78.64
2018-12-16T07:56:53.281Z,78.32
2018-12-16T07:57:53.273Z,78.32
2018-12-16T07:58:53.262Z,78.74
2018-12-16T07:59:53.249Z,77.91
2018-12-16T08:00:53.241Z,77.91
2018-12-16T08:01:53.229Z,78.11
2018-12-16T08:02:53.219Z,77.69
2018-12-16T08:03:53.226Z,76.96
2018-12-16T08:04:53.206Z,77.80
2018-12-16T08:05:53.186Z,77.48
2018-12-16T08:06:53.178Z,76.33
2018-12-16T08:07:53.166Z,76.02
2018-12-16T08:08:53.156Z,75.60
2018-12-16T08:09:53.144Z,76.33
2018-12-16T08:10:53.137Z,76.23
2018-12-16T08:11:53.909Z,75.78
2018-12-16T08:12:53.115Z,75.18
2018-12-16T08:13:53.102Z,76.02
2018-12-16T08:14:53.092Z,75.49
2018-12-16T08:15:53.086Z,75.18
2018-12-16T08:16:53.073Z,75.29
2018-12-16T08:17:53.060Z,75.49
2018-12-16T08:18:53.051Z,75.29
2018-12-16T08:19:53.041Z,75.39
2018-12-16T08:20:53.029Z,75.08
2018-12-16T08:21:53.020Z,74.97
2018-12-16T08:22:53.017Z,74.03
2018-12-16T08:23:53.001Z,74.03
2018-12-16T08:24:52.987Z,73.82
2018-12-16T08:25:52.977Z,73.47
2018-12-16T08:26:52.975Z,73.72
2018-12-16T08:27:52.955Z,74.34
2018-12-16T08:28:52.952Z,73.93
2018-12-16T08:29:52.937Z,75.25
2018-12-16T08:30:52.922Z,74.97
2018-12-16T08:31:52.913Z,74.24
2018-12-16T08:32:52.902Z,74.52
2018-12-16T08:33:52.894Z,74.73
2018-12-16T08:34:52.881Z,74.62
2018-12-16T08:35:52.872Z,74.84
2018-12-16T08:36:52.860Z,74.62
2018-12-16T08:37:52.852Z,75.04
2018-12-16T08:38:52.845Z,74.55
2018-12-16T08:39:52.830Z,74.94
2018-12-16T08:40:52.825Z,74.55
2018-12-16T08:41:52.811Z,74.62
2018-12-16T08:42:52.801Z,74.34
2018-12-16T08:43:52.787Z,74.62
2018-12-16T08:44:52.783Z,75.04
2018-12-16T08:45:52.766Z,75.70
2018-12-16T08:46:52.756Z,74.84
2018-12-16T08:47:52.748Z,74.66
2018-12-16T08:48:52.738Z,73.40
2018-12-16T08:49:52.725Z,73.68
2018-12-16T08:50:52.715Z,73.58
2018-12-16T08:51:52.705Z,72.67
2018-12-16T08:52:52.698Z,72.74
2018-12-16T08:53:52.685Z,72.74
2018-12-16T08:54:52.672Z,72.53
2018-12-16T08:55:52.661Z,73.05
2018-12-16T08:56:52.652Z,72.95
2018-12-16T08:57:52.646Z,72.53
2018-12-16T08:58:52.633Z,72.95
2018-12-16T08:59:52.620Z,73.79
2018-12-16T09:00:52.609Z,73.79
2018-12-16T09:01:52.602Z,73.58
2018-12-16T09:02:52.594Z,74.10
2018-12-16T09:03:52.578Z,74.84
2018-12-16T09:04:52.574Z,74.31
2018-12-16T09:05:52.579Z,73.79
2018-12-16T09:06:52.552Z,74.52
2018-12-16T09:07:52.537Z,73.37
2018-12-16T09:08:52.528Z,73.58
2018-12-16T09:09:52.518Z,73.47
2018-12-16T09:10:52.507Z,74.31
2018-12-16T09:11:52.505Z,73.79
2018-12-16T09:12:52.555Z,73.16
2018-12-16T09:13:52.474Z,72.64
2018-12-16T09:14:52.463Z,72.85
2018-12-16T09:15:52.452Z,72.85
2018-12-16T09:16:53.692Z,73.05
2018-12-16T09:17:52.438Z,73.05
2018-12-16T09:18:52.422Z,73.05
2018-12-16T09:19:52.411Z,72.85
2018-12-16T09:20:52.400Z,72.74
2018-12-16T09:21:52.388Z,72.64
2018-12-16T09:22:52.382Z,72.50
2018-12-16T09:23:52.370Z,72.53
2018-12-16T09:24:52.357Z,72.85
2018-12-16T09:25:52.398Z,72.60
2018-12-16T09:26:52.336Z,72.60
2018-12-16T09:27:52.326Z,72.39
2018-12-16T09:28:52.316Z,71.90
2018-12-16T09:29:52.307Z,72.01
2018-12-16T09:30:57.942Z,71.28
2018-12-16T09:31:53.282Z,71.14
2018-12-16T09:32:52.281Z,71.69
2018-12-16T09:33:52.269Z,70.96
2018-12-16T09:34:52.254Z,71.90
2018-12-16T09:35:52.245Z,71.48
2018-12-16T09:36:52.235Z,70.96
2018-12-16T09:37:52.234Z,71.28
2018-12-16T09:38:52.209Z,71.80
2018-12-16T09:39:52.200Z,70.93
2018-12-16T09:40:52.195Z,71.97
2018-12-16T09:41:52.179Z,71.77
2018-12-16T09:42:52.171Z,71.06
2018-12-16T09:43:52.161Z,71.38
2018-12-16T09:44:52.148Z,70.30
2018-12-16T09:45:52.138Z,70.96
2018-12-16T09:46:52.126Z,71.28
2018-12-16T09:47:52.120Z,72.11
2018-12-16T09:48:52.110Z,72.01
2018-12-16T09:49:52.098Z,71.17
2018-12-16T09:50:52.086Z,71.59
2018-12-16T09:51:52.076Z,71.80
2018-12-16T09:52:52.066Z,71.14
2018-12-16T09:53:52.057Z,71.48
2018-12-16T09:54:52.047Z,70.72
2018-12-16T09:55:52.033Z,71.28
2018-12-16T09:56:52.024Z,71.03
2018-12-16T09:57:52.011Z,70.75
2018-12-16T09:58:52.004Z,72.11
2018-12-16T09:59:51.990Z,70.96
2018-12-16T10:00:51.980Z,69.78
2018-12-16T10:01:51.970Z,70.12
2018-12-16T10:02:51.967Z,69.92
2018-12-16T10:03:51.952Z,70.75
2018-12-16T10:04:51.940Z,70.43
2018-12-16T10:05:51.927Z,71.48
2018-12-16T10:06:51.917Z,71.06
2018-12-16T10:07:51.907Z,71.24
2018-12-16T10:08:51.896Z,71.97
2018-12-16T10:09:51.886Z,71.80
2018-12-16T10:10:51.875Z,72.22
2018-12-16T10:11:51.866Z,72.42
2018-12-16T10:12:51.851Z,72.08
2018-12-16T10:13:51.845Z,70.96
2018-12-16T10:14:51.850Z,70.33
2018-12-16T10:15:51.823Z,70.43
2018-12-16T10:16:51.813Z,71.06
2018-12-16T10:17:51.799Z,71.59
2018-12-16T10:18:51.791Z,72.01
2018-12-16T10:19:51.781Z,72.32
2018-12-16T10:20:51.769Z,72.01
2018-12-16T10:21:51.757Z,72.01
2018-12-16T10:22:51.751Z,72.95
2018-12-16T10:23:51.738Z,72.53
2018-12-16T10:24:51.777Z,72.42
2018-12-16T10:25:51.721Z,72.22
2018-12-16T10:26:51.712Z,72.74
2018-12-16T10:27:51.695Z,72.32
2018-12-16T10:28:51.684Z,72.42
2018-12-16T10:29:51.676Z,72.01
2018-12-16T10:30:51.663Z,72.32
2018-12-16T10:31:51.661Z,72.22
2018-12-16T10:32:51.643Z,70.33
2018-12-16T10:33:51.635Z,69.46
2018-12-16T10:34:51.622Z,69.49
2018-12-16T10:35:51.611Z,69.18
2018-12-16T10:36:51.600Z,68.87
2018-12-16T10:37:51.590Z,68.87
2018-12-16T10:38:51.580Z,68.87
2018-12-16T10:39:51.569Z,68.97
2018-12-16T10:40:51.559Z,68.55
2018-12-16T10:41:51.546Z,68.21
2018-12-16T10:42:51.538Z,68.34
2018-12-16T10:43:51.527Z,68.10
2018-12-16T10:44:51.515Z,66.85
2018-12-16T10:45:51.506Z,67.30
2018-12-16T10:46:51.497Z,66.67
2018-12-16T10:47:51.561Z,66.14
2018-12-16T10:48:51.479Z,66.36
2018-12-16T10:49:51.463Z,67.30
2018-12-16T10:50:51.453Z,66.53
2018-12-16T10:51:51.443Z,67.40
2018-12-16T10:52:51.433Z,66.77
2018-12-16T10:53:51.422Z,66.99
2018-12-16T10:54:58.157Z,66.99
2018-12-16T10:55:52.397Z,67.09
2018-12-16T10:56:51.392Z,66.88
2018-12-16T10:57:51.388Z,66.77
2018-12-16T10:58:51.369Z,67.19
2018-12-16T10:59:51.358Z,66.67
2018-12-16T11:00:51.366Z,67.30
2018-12-16T11:01:51.337Z,66.49
2018-12-16T11:02:51.326Z,66.77
2018-12-16T11:03:51.318Z,66.67
2018-12-16T11:04:51.309Z,67.30
2018-12-16T11:05:51.298Z,66.77
2018-12-16T11:06:51.291Z,67.22
2018-12-16T11:07:51.274Z,66.77
2018-12-16T11:08:51.263Z,67.22
2018-12-16T11:09:51.254Z,67.09
2018-12-16T11:10:51.246Z,67.09
2018-12-16T11:11:51.233Z,66.77
2018-12-16T11:12:51.225Z,67.09
2018-12-16T11:13:51.212Z,66.88
2018-12-16T11:14:51.201Z,67.72
2018-12-16T11:15:51.194Z,67.30
2018-12-16T11:16:51.179Z,67.40
2018-12-16T11:17:51.215Z,66.99
2018-12-16T11:18:51.161Z,67.19
2018-12-16T11:19:51.149Z,67.30
2018-12-16T11:20:51.139Z,66.88
2018-12-16T11:21:51.129Z,67.09
2018-12-16T11:22:51.120Z,66.67
2018-12-16T11:23:54.030Z,66.56
2018-12-16T11:24:51.096Z,66.77
2018-12-16T11:25:51.085Z,67.19
2018-12-16T11:26:51.143Z,66.67
2018-12-16T11:27:51.067Z,66.67
2018-12-16T11:28:51.058Z,66.56
2018-12-16T11:29:51.044Z,66.67
2018-12-16T11:30:51.046Z,67.19
2018-12-16T11:31:51.023Z,66.67
2018-12-16T11:32:51.014Z,66.56
2018-12-16T11:33:51.015Z,66.67
2018-12-16T11:34:50.992Z,67.19
2018-12-16T11:35:50.982Z,66.88
2018-12-16T11:36:50.982Z,67.27
2018-12-16T11:37:50.968Z,66.67
2018-12-16T11:38:50.960Z,66.67
2018-12-16T11:39:50.939Z,66.67
2018-12-16T11:40:50.927Z,67.40
2018-12-16T11:41:50.918Z,66.67
2018-12-16T11:42:50.906Z,66.46
2018-12-16T11:43:50.895Z,67.19
2018-12-16T11:44:50.888Z,66.77
2018-12-16T11:45:50.877Z,67.09
2018-12-16T11:46:50.865Z,66.46
2018-12-16T11:47:50.854Z,66.64
2018-12-16T11:48:50.844Z,67.06
2018-12-16T11:49:50.836Z,66.25
2018-12-16T11:50:50.827Z,66.67
2018-12-16T11:51:50.814Z,66.56
2018-12-16T11:52:50.801Z,66.99
2018-12-16T11:53:50.792Z,66.56
2018-12-16T11:54:50.780Z,66.99
2018-12-16T11:55:50.770Z,66.67
2018-12-16T11:56:50.759Z,67.16
2018-12-16T11:57:50.749Z,65.59
2018-12-16T11:58:50.741Z,65.83
2018-12-16T11:59:50.729Z,66.56
2018-12-16T12:00:50.722Z,66.11
2018-12-16T12:01:50.707Z,66.43
2018-12-16T12:02:50.702Z,66.96
2018-12-16T12:03:50.691Z,65.94
2018-12-16T12:04:50.681Z,66.14
2018-12-16T12:05:50.667Z,66.88
2018-12-16T12:06:50.656Z,66.77
2018-12-16T12:07:50.642Z,66.56
2018-12-16T12:08:50.635Z,66.67
2018-12-16T12:09:50.627Z,66.53
2018-12-16T12:10:50.612Z,66.43
2018-12-16T12:11:50.605Z,67.37
2018-12-16T12:12:50.591Z,66.74
2018-12-16T12:13:50.579Z,66.64
2018-12-16T12:14:50.570Z,66.96
2018-12-16T12:15:50.558Z,66.43
2018-12-16T12:16:50.548Z,66.53
2018-12-16T12:17:50.539Z,66.11
2018-12-16T12:18:50.527Z,66.53
2018-12-16T12:19:50.517Z,67.16
2018-12-16T12:20:50.509Z,67.16
2018-12-16T12:21:50.499Z,67.16
2018-12-16T12:22:50.489Z,66.53
2018-12-16T12:23:50.477Z,64.97
2018-12-16T12:24:50.466Z,66.64
2018-12-16T12:25:50.455Z,66.53
2018-12-16T12:26:50.446Z,64.86
2018-12-16T12:27:50.437Z,65.80
2018-12-16T12:28:50.425Z,66.43
2018-12-16T12:29:50.414Z,65.88
2018-12-16T12:30:50.403Z,64.83
2018-12-16T12:31:50.393Z,66.22
2018-12-16T12:32:50.381Z,64.94
2018-12-16T12:33:50.375Z,65.70
2018-12-16T12:34:50.369Z,65.80
2018-12-16T12:35:50.350Z,64.62
2018-12-16T12:36:50.341Z,65.88
2018-12-16T12:37:50.330Z,65.56
2018-12-16T12:38:50.320Z,66.43
2018-12-16T12:39:50.315Z,66.11
2018-12-16T12:40:50.295Z,65.91
2018-12-16T12:41:50.285Z,65.59
2018-12-16T12:42:50.292Z,66.33
2018-12-16T12:43:50.272Z,66.64
2018-12-16T12:44:50.254Z,66.25
2018-12-16T12:45:50.245Z,66.74
2018-12-16T12:46:50.234Z,67.16
2018-12-16T12:47:50.223Z,66.64
2018-12-16T12:48:50.215Z,67.27
2018-12-16T12:49:50.206Z,66.43
2018-12-16T12:50:50.191Z,66.01
2018-12-16T12:51:50.180Z,65.91
2018-12-16T12:52:50.170Z,66.22